sensor_id;sensor_type;location;lat;lon;timestamp;temperature;humidity
31975;DHT22;18500;43.618;1.474;2023-11-22T07:16:19;10.10;1.00
31975;DHT22;18500;43.618;1.474;2023-11-22T07:18:45;10.10;1.00
31975;DHT22;18500;43.618;1.474;2023-11-22T07:21:11;10.20;1.00
31975;DHT22;18500;43.618;1.474;2023-11-22T07:23:37;10.10;1.00
31975;DHT22;18500;43.618;1.474;2023-11-22T07:26:03;10.20;1.00
31975;DHT22;18500;43.618;1.474;2023-11-22T07:28:29;10.20;1.00
31975;DHT22;18500;43.618;1.474;2023-11-22T07:30:56;10.20;1.00
31975;DHT22;18500;43.618;1.474;2023-11-22T07:33:22;10.20;1.00
31975;DHT22;18500;43.618;1.474;2023-11-22T07:35:51;10.20;1.00
31975;DHT22;18500;43.618;1.474;2023-11-22T07:38:17;10.20;1.00
31975;DHT22;18500;43.618;1.474;2023-11-22T07:40:43;10.20;1.00
31975;DHT22;18500;43.618;1.474;2023-11-22T07:43:08;10.20;1.00
31975;DHT22;18500;43.618;1.474;2023-11-22T07:45:34;10.20;1.00
31975;DHT22;18500;43.618;1.474;2023-11-22T07:48:00;10.10;1.00
31975;DHT22;18500;43.618;1.474;2023-11-22T07:50:26;10.20;1.00
31975;DHT22;18500;43.618;1.474;2023-11-22T07:52:52;10.20;1.00
31975;DHT22;18500;43.618;1.474;2023-11-22T07:55:18;10.40;1.00
31975;DHT22;18500;43.618;1.474;2023-11-22T07:57:44;10.30;1.00
31975;DHT22;18500;43.618;1.474;2023-11-22T08:00:11;10.30;1.00
31975;DHT22;18500;43.618;1.474;2023-11-22T08:02:37;10.20;1.00
31975;DHT22;18500;43.618;1.474;2023-11-22T08:05:08;10.30;1.00
31975;DHT22;18500;43.618;1.474;2023-11-22T08:07:37;10.30;1.00
31975;DHT22;18500;43.618;1.474;2023-11-22T08:10:08;10.40;1.00
31975;DHT22;18500;43.618;1.474;2023-11-22T08:12:38;10.50;1.00
31975;DHT22;18500;43.618;1.474;2023-11-22T08:15:04;10.40;1.00
31975;DHT22;18500;43.618;1.474;2023-11-22T08:17:30;10.30;1.00
31975;DHT22;18500;43.618;1.474;2023-11-22T08:19:58;10.40;1.00
31975;DHT22;18500;43.618;1.474;2023-11-22T08:22:25;10.50;1.00
31975;DHT22;18500;43.618;1.474;2023-11-22T08:24:54;10.50;1.00
31975;DHT22;18500;43.618;1.474;2023-11-22T08:27:22;10.40;1.00
31975;DHT22;18500;43.618;1.474;2023-11-22T08:29:48;10.40;1.00
31975;DHT22;18500;43.618;1.474;2023-11-22T08:32:14;10.40;1.00
31975;DHT22;18500;43.618;1.474;2023-11-22T08:34:39;10.40;1.00
31975;DHT22;18500;43.618;1.474;2023-11-22T08:37:06;10.40;1.00
31975;DHT22;18500;43.618;1.474;2023-11-22T08:39:32;10.30;1.00
31975;DHT22;18500;43.618;1.474;2023-11-22T08:41:58;10.40;1.00
31975;DHT22;18500;43.618;1.474;2023-11-22T08:44:23;10.50;1.00
31975;DHT22;18500;43.618;1.474;2023-11-22T08:46:49;10.50;1.00
31975;DHT22;18500;43.618;1.474;2023-11-22T08:49:15;10.50;1.00
31975;DHT22;18500;43.618;1.474;2023-11-22T08:51:41;10.60;1.00
31975;DHT22;18500;43.618;1.474;2023-11-22T08:54:08;10.70;1.00
31975;DHT22;18500;43.618;1.474;2023-11-22T08:56:33;10.70;1.00
31975;DHT22;18500;43.618;1.474;2023-11-22T08:59:00;10.70;1.00
31975;DHT22;18500;43.618;1.474;2023-11-22T09:01:26;10.70;1.00
31975;DHT22;18500;43.618;1.474;2023-11-22T09:03:51;10.70;1.00
31975;DHT22;18500;43.618;1.474;2023-11-22T09:06:17;10.80;1.00
31975;DHT22;18500;43.618;1.474;2023-11-22T09:08:44;10.90;1.00
31975;DHT22;18500;43.618;1.474;2023-11-22T09:11:11;10.90;1.00
31975;DHT22;18500;43.618;1.474;2023-11-22T09:13:37;10.90;1.00
31975;DHT22;18500;43.618;1.474;2023-11-22T09:16:04;10.90;1.00
31975;DHT22;18500;43.618;1.474;2023-11-22T09:18:31;11.00;1.00
31975;DHT22;18500;43.618;1.474;2023-11-22T09:20:57;10.90;1.00
31975;DHT22;18500;43.618;1.474;2023-11-22T09:23:24;11.00;1.00
31975;DHT22;18500;43.618;1.474;2023-11-22T09:25:51;10.90;1.00
31975;DHT22;18500;43.618;1.474;2023-11-22T09:28:17;11.00;1.00
31975;DHT22;18500;43.618;1.474;2023-11-22T09:30:45;10.90;1.00
31975;DHT22;18500;43.618;1.474;2023-11-22T09:33:12;11.00;1.00
31975;DHT22;18500;43.618;1.474;2023-11-22T09:35:41;11.10;1.00
31975;DHT22;18500;43.618;1.474;2023-11-22T09:38:09;11.00;1.00
31975;DHT22;18500;43.618;1.474;2023-11-22T09:43:06;11.10;1.00
31975;DHT22;18500;43.618;1.474;2023-11-22T09:45:32;11.10;1.00
31975;DHT22;18500;43.618;1.474;2023-11-22T09:47:59;11.10;1.00
31975;DHT22;18500;43.618;1.474;2023-11-22T09:51:20;11.10;1.00
31975;DHT22;18500;43.618;1.474;2023-11-22T09:53:56;11.00;1.00
31975;DHT22;18500;43.618;1.474;2023-11-22T09:56:26;11.10;1.00
31975;DHT22;18500;43.618;1.474;2023-11-22T09:58:57;11.00;1.00
31975;DHT22;18500;43.618;1.474;2023-11-22T10:01:27;11.00;1.00
31975;DHT22;18500;43.618;1.474;2023-11-22T10:04:03;11.10;1.00
31975;DHT22;18500;43.618;1.474;2023-11-22T10:06:31;11.20;1.00
31975;DHT22;18500;43.618;1.474;2023-11-22T10:09:02;11.30;1.00
31975;DHT22;18500;43.618;1.474;2023-11-22T10:11:36;11.30;1.00
31975;DHT22;18500;43.618;1.474;2023-11-22T10:14:04;11.30;1.00
31975;DHT22;18500;43.618;1.474;2023-11-22T10:16:30;11.30;1.00
31975;DHT22;18500;43.618;1.474;2023-11-22T10:18:55;11.40;1.00
31975;DHT22;18500;43.618;1.474;2023-11-22T10:21:28;11.40;1.00
31975;DHT22;18500;43.618;1.474;2023-11-22T10:24:01;11.30;1.00
31975;DHT22;18500;43.618;1.474;2023-11-22T10:26:30;11.30;1.00
31975;DHT22;18500;43.618;1.474;2023-11-22T10:28:56;11.20;1.00
31975;DHT22;18500;43.618;1.474;2023-11-22T10:31:23;11.00;1.00
31975;DHT22;18500;43.618;1.474;2023-11-22T10:33:50;11.00;1.00
31975;DHT22;18500;43.618;1.474;2023-11-22T10:36:16;10.90;1.00
31975;DHT22;18500;43.618;1.474;2023-11-22T10:38:48;11.00;1.00
31975;DHT22;18500;43.618;1.474;2023-11-22T10:41:14;11.00;1.00
31975;DHT22;18500;43.618;1.474;2023-11-22T10:43:40;11.00;1.00
31975;DHT22;18500;43.618;1.474;2023-11-22T10:46:07;11.00;1.00
31975;DHT22;18500;43.618;1.474;2023-11-22T10:48:36;10.90;1.00
31975;DHT22;18500;43.618;1.474;2023-11-22T10:51:03;11.00;1.00
31975;DHT22;18500;43.618;1.474;2023-11-22T10:53:36;11.20;1.00
31975;DHT22;18500;43.618;1.474;2023-11-22T10:56:07;11.50;1.00
31975;DHT22;18500;43.618;1.474;2023-11-22T10:58:45;11.60;1.00
31975;DHT22;18500;43.618;1.474;2023-11-22T11:01:12;11.60;1.00
31975;DHT22;18500;43.618;1.474;2023-11-22T11:03:40;11.70;1.00
31975;DHT22;18500;43.618;1.474;2023-11-22T11:06:09;11.70;1.00
31975;DHT22;18500;43.618;1.474;2023-11-22T11:08:38;11.80;1.00
31975;DHT22;18500;43.618;1.474;2023-11-22T11:11:04;12.20;1.00
31975;DHT22;18500;43.618;1.474;2023-11-22T11:13:31;12.20;1.00
31975;DHT22;18500;43.618;1.474;2023-11-22T11:15:58;12.00;1.00
31975;DHT22;18500;43.618;1.474;2023-11-22T11:18:25;11.70;1.00
31975;DHT22;18500;43.618;1.474;2023-11-22T11:20:57;11.60;1.00
31975;DHT22;18500;43.618;1.474;2023-11-22T11:23:26;11.50;1.00
31975;DHT22;18500;43.618;1.474;2023-11-22T11:25:53;11.50;1.00
31975;DHT22;18500;43.618;1.474;2023-11-22T11:28:20;11.50;1.00
31975;DHT22;18500;43.618;1.474;2023-11-22T11:30:50;11.70;1.00
31975;DHT22;18500;43.618;1.474;2023-11-22T11:33:32;11.80;1.00
31975;DHT22;18500;43.618;1.474;2023-11-22T11:35:57;12.00;1.00
31975;DHT22;18500;43.618;1.474;2023-11-22T11:38:30;11.90;1.00
31975;DHT22;18500;43.618;1.474;2023-11-22T11:41:09;11.80;1.00
31975;DHT22;18500;43.618;1.474;2023-11-22T11:43:46;12.00;1.00
31975;DHT22;18500;43.618;1.474;2023-11-22T11:46:14;12.10;1.00
31975;DHT22;18500;43.618;1.474;2023-11-22T11:48:50;12.10;1.00
31975;DHT22;18500;43.618;1.474;2023-11-22T11:51:37;12.00;1.00
31975;DHT22;18500;43.618;1.474;2023-11-22T11:54:03;11.80;1.00
31975;DHT22;18500;43.618;1.474;2023-11-22T11:56:29;11.60;1.00
31975;DHT22;18500;43.618;1.474;2023-11-22T11:58:58;11.50;1.00
31975;DHT22;18500;43.618;1.474;2023-11-22T12:01:28;11.60;1.00
31975;DHT22;18500;43.618;1.474;2023-11-22T12:03:55;11.60;1.00
31975;DHT22;18500;43.618;1.474;2023-11-22T12:06:21;11.70;1.00
31975;DHT22;18500;43.618;1.474;2023-11-22T12:08:46;12.00;1.00
31975;DHT22;18500;43.618;1.474;2023-11-22T12:11:13;12.00;1.00
31975;DHT22;18500;43.618;1.474;2023-11-22T12:13:39;11.80;1.00
31975;DHT22;18500;43.618;1.474;2023-11-22T12:16:08;11.90;1.00
31975;DHT22;18500;43.618;1.474;2023-11-22T12:18:41;11.80;1.00
31975;DHT22;18500;43.618;1.474;2023-11-22T12:21:08;12.00;1.00
31975;DHT22;18500;43.618;1.474;2023-11-22T12:23:38;12.10;1.00
31975;DHT22;18500;43.618;1.474;2023-11-22T12:26:05;12.10;1.00
31975;DHT22;18500;43.618;1.474;2023-11-22T12:28:34;12.30;1.00
31975;DHT22;18500;43.618;1.474;2023-11-22T12:31:10;12.50;1.00
31975;DHT22;18500;43.618;1.474;2023-11-22T12:33:36;12.00;1.00
31975;DHT22;18500;43.618;1.474;2023-11-22T12:36:05;11.90;1.00
31975;DHT22;18500;43.618;1.474;2023-11-22T12:38:32;11.90;1.00
31975;DHT22;18500;43.618;1.474;2023-11-22T12:40:58;11.90;1.00
31975;DHT22;18500;43.618;1.474;2023-11-22T12:43:24;12.00;1.00
31975;DHT22;18500;43.618;1.474;2023-11-22T12:45:59;12.40;1.00
31975;DHT22;18500;43.618;1.474;2023-11-22T12:48:26;12.60;1.00
31975;DHT22;18500;43.618;1.474;2023-11-22T12:50:55;12.70;1.00
31975;DHT22;18500;43.618;1.474;2023-11-22T12:53:21;13.10;1.00
31975;DHT22;18500;43.618;1.474;2023-11-22T12:55:48;13.50;1.00
31975;DHT22;18500;43.618;1.474;2023-11-22T12:58:21;13.60;1.00
31975;DHT22;18500;43.618;1.474;2023-11-22T13:00:49;13.30;1.00
31975;DHT22;18500;43.618;1.474;2023-11-22T13:03:14;13.30;1.00
31975;DHT22;18500;43.618;1.474;2023-11-22T13:05:42;13.20;1.00
31975;DHT22;18500;43.618;1.474;2023-11-22T13:08:12;12.90;1.00
31975;DHT22;18500;43.618;1.474;2023-11-22T13:10:39;12.70;1.00
31975;DHT22;18500;43.618;1.474;2023-11-22T13:13:05;12.40;1.00
31975;DHT22;18500;43.618;1.474;2023-11-22T13:15:34;12.20;1.00
31975;DHT22;18500;43.618;1.474;2023-11-22T13:17:59;12.10;1.00
31975;DHT22;18500;43.618;1.474;2023-11-22T13:20:26;12.10;1.00
31975;DHT22;18500;43.618;1.474;2023-11-22T13:22:55;12.30;1.00
31975;DHT22;18500;43.618;1.474;2023-11-22T13:25:24;12.40;1.00
31975;DHT22;18500;43.618;1.474;2023-11-22T13:27:51;13.00;1.00
31975;DHT22;18500;43.618;1.474;2023-11-22T13:30:18;13.00;1.00
31975;DHT22;18500;43.618;1.474;2023-11-22T13:32:51;13.10;1.00
31975;DHT22;18500;43.618;1.474;2023-11-22T13:35:17;13.10;1.00
31975;DHT22;18500;43.618;1.474;2023-11-22T13:37:47;12.90;1.00
31975;DHT22;18500;43.618;1.474;2023-11-22T13:40:19;13.10;1.00
31975;DHT22;18500;43.618;1.474;2023-11-22T13:42:48;13.50;1.00
31975;DHT22;18500;43.618;1.474;2023-11-22T13:45:15;13.80;1.00
31975;DHT22;18500;43.618;1.474;2023-11-22T13:47:46;14.10;1.00
31975;DHT22;18500;43.618;1.474;2023-11-22T13:50:17;14.10;1.00
31975;DHT22;18500;43.618;1.474;2023-11-22T13:52:51;14.00;1.00
31975;DHT22;18500;43.618;1.474;2023-11-22T13:55:18;13.80;1.00
31975;DHT22;18500;43.618;1.474;2023-11-22T13:57:52;13.30;1.00
31975;DHT22;18500;43.618;1.474;2023-11-22T14:00:19;13.50;1.00
31975;DHT22;18500;43.618;1.474;2023-11-22T14:02:55;13.60;1.00
31975;DHT22;18500;43.618;1.474;2023-11-22T14:05:27;13.30;1.00
31975;DHT22;18500;43.618;1.474;2023-11-22T14:07:53;13.30;1.00
31975;DHT22;18500;43.618;1.474;2023-11-22T14:10:20;13.40;1.00
31975;DHT22;18500;43.618;1.474;2023-11-22T14:12:50;13.10;1.00
31975;DHT22;18500;43.618;1.474;2023-11-22T14:15:17;13.10;1.00
31975;DHT22;18500;43.618;1.474;2023-11-22T14:17:43;13.30;1.00
31975;DHT22;18500;43.618;1.474;2023-11-22T14:20:10;13.30;1.00
31975;DHT22;18500;43.618;1.474;2023-11-22T14:22:37;13.10;1.00
31975;DHT22;18500;43.618;1.474;2023-11-22T14:25:03;13.00;1.00
31975;DHT22;18500;43.618;1.474;2023-11-22T14:27:32;12.90;1.00
31975;DHT22;18500;43.618;1.474;2023-11-22T14:29:59;12.80;1.00
31975;DHT22;18500;43.618;1.474;2023-11-22T14:32:25;12.70;1.00
31975;DHT22;18500;43.618;1.474;2023-11-22T14:34:51;12.60;1.00
31975;DHT22;18500;43.618;1.474;2023-11-22T14:37:18;12.50;1.00
31975;DHT22;18500;43.618;1.474;2023-11-22T14:39:45;12.30;1.00
31975;DHT22;18500;43.618;1.474;2023-11-22T14:42:10;12.20;1.00
31975;DHT22;18500;43.618;1.474;2023-11-22T14:44:37;12.20;1.00
31975;DHT22;18500;43.618;1.474;2023-11-22T14:47:03;12.20;1.00
31975;DHT22;18500;43.618;1.474;2023-11-22T14:49:34;12.60;1.00
31975;DHT22;18500;43.618;1.474;2023-11-22T14:52:00;12.80;1.00
31975;DHT22;18500;43.618;1.474;2023-11-22T14:54:26;12.80;1.00
31975;DHT22;18500;43.618;1.474;2023-11-22T14:56:53;12.80;1.00
31975;DHT22;18500;43.618;1.474;2023-11-22T14:59:21;12.70;1.00
31975;DHT22;18500;43.618;1.474;2023-11-22T15:01:46;12.60;1.00
31975;DHT22;18500;43.618;1.474;2023-11-22T15:04:13;12.50;1.00
31975;DHT22;18500;43.618;1.474;2023-11-22T15:06:40;12.60;1.00
31975;DHT22;18500;43.618;1.474;2023-11-22T15:09:06;12.50;1.00
31975;DHT22;18500;43.618;1.474;2023-11-22T15:11:36;12.50;1.00
31975;DHT22;18500;43.618;1.474;2023-11-22T15:14:03;12.50;1.00
31975;DHT22;18500;43.618;1.474;2023-11-22T15:16:29;13.10;1.00
31975;DHT22;18500;43.618;1.474;2023-11-22T15:18:54;13.40;1.00
31975;DHT22;18500;43.618;1.474;2023-11-22T15:21:20;13.10;1.00
31975;DHT22;18500;43.618;1.474;2023-11-22T15:23:45;13.00;1.00
31975;DHT22;18500;43.618;1.474;2023-11-22T15:26:12;13.00;1.00
31975;DHT22;18500;43.618;1.474;2023-11-22T15:28:38;12.90;1.00
31975;DHT22;18500;43.618;1.474;2023-11-22T15:31:03;12.90;1.00
31975;DHT22;18500;43.618;1.474;2023-11-22T15:33:29;12.80;1.00
31975;DHT22;18500;43.618;1.474;2023-11-22T15:35:55;12.60;1.00
31975;DHT22;18500;43.618;1.474;2023-11-22T15:38:20;12.40;1.00
31975;DHT22;18500;43.618;1.474;2023-11-22T15:40:48;12.40;1.00
31975;DHT22;18500;43.618;1.474;2023-11-22T15:43:14;12.40;1.00
31975;DHT22;18500;43.618;1.474;2023-11-22T15:45:40;12.30;1.00
31975;DHT22;18500;43.618;1.474;2023-11-22T15:48:08;12.10;1.00
31975;DHT22;18500;43.618;1.474;2023-11-22T15:50:34;12.00;1.00
31975;DHT22;18500;43.618;1.474;2023-11-22T15:52:59;12.00;1.00
31975;DHT22;18500;43.618;1.474;2023-11-22T15:55:27;12.00;1.00
31975;DHT22;18500;43.618;1.474;2023-11-22T15:57:53;11.90;1.00
31975;DHT22;18500;43.618;1.474;2023-11-22T16:00:19;11.80;1.00
31975;DHT22;18500;43.618;1.474;2023-11-22T16:02:47;11.60;1.00
31975;DHT22;18500;43.618;1.474;2023-11-22T16:05:12;11.50;1.00
31975;DHT22;18500;43.618;1.474;2023-11-22T16:07:38;11.60;1.00
31975;DHT22;18500;43.618;1.474;2023-11-22T16:10:04;11.50;1.00
31975;DHT22;18500;43.618;1.474;2023-11-22T16:12:34;11.40;1.00
31975;DHT22;18500;43.618;1.474;2023-11-22T16:15:00;11.30;1.00
31975;DHT22;18500;43.618;1.474;2023-11-22T16:17:26;11.30;1.00
31975;DHT22;18500;43.618;1.474;2023-11-22T16:19:52;11.20;1.00
31975;DHT22;18500;43.618;1.474;2023-11-22T16:22:18;11.00;1.00
31975;DHT22;18500;43.618;1.474;2023-11-22T16:24:43;11.00;1.00
31975;DHT22;18500;43.618;1.474;2023-11-22T16:27:11;10.90;1.00
31975;DHT22;18500;43.618;1.474;2023-11-22T16:29:37;10.70;1.00
31975;DHT22;18500;43.618;1.474;2023-11-22T16:32:03;10.70;1.00
31975;DHT22;18500;43.618;1.474;2023-11-22T16:34:28;10.60;1.00
31975;DHT22;18500;43.618;1.474;2023-11-22T16:36:54;10.60;1.00
31975;DHT22;18500;43.618;1.474;2023-11-22T16:39:20;10.50;1.00
31975;DHT22;18500;43.618;1.474;2023-11-22T16:41:48;10.40;1.00
31975;DHT22;18500;43.618;1.474;2023-11-22T16:44:14;10.40;1.00
31975;DHT22;18500;43.618;1.474;2023-11-22T16:46:40;10.40;1.00
31975;DHT22;18500;43.618;1.474;2023-11-22T16:49:07;10.30;1.00
31975;DHT22;18500;43.618;1.474;2023-11-22T16:51:38;10.30;1.00
31975;DHT22;18500;43.618;1.474;2023-11-22T16:54:04;10.30;1.00
31975;DHT22;18500;43.618;1.474;2023-11-22T16:56:30;10.40;1.00
31975;DHT22;18500;43.618;1.474;2023-11-22T16:58:56;10.30;1.00
31975;DHT22;18500;43.618;1.474;2023-11-22T17:01:21;10.30;1.00
31975;DHT22;18500;43.618;1.474;2023-11-22T17:03:47;10.20;1.00
31975;DHT22;18500;43.618;1.474;2023-11-22T17:06:13;10.40;1.00
31975;DHT22;18500;43.618;1.474;2023-11-22T17:08:38;10.40;1.00
31975;DHT22;18500;43.618;1.474;2023-11-22T17:11:04;10.30;1.00
31975;DHT22;18500;43.618;1.474;2023-11-22T17:13:30;10.50;1.00
31975;DHT22;18500;43.618;1.474;2023-11-22T17:15:56;10.40;1.00
31975;DHT22;18500;43.618;1.474;2023-11-22T17:18:22;10.40;1.00
31975;DHT22;18500;43.618;1.474;2023-11-22T17:20:48;10.30;1.00
31975;DHT22;18500;43.618;1.474;2023-11-22T17:23:14;10.30;1.00
31975;DHT22;18500;43.618;1.474;2023-11-22T17:25:40;10.30;1.00
31975;DHT22;18500;43.618;1.474;2023-11-22T17:28:06;10.20;1.00
31975;DHT22;18500;43.618;1.474;2023-11-22T17:30:31;10.00;1.00
31975;DHT22;18500;43.618;1.474;2023-11-22T17:32:59;10.00;1.00
31975;DHT22;18500;43.618;1.474;2023-11-22T17:35:24;9.90;1.00
31975;DHT22;18500;43.618;1.474;2023-11-22T17:37:50;9.80;1.00
31975;DHT22;18500;43.618;1.474;2023-11-22T17:40:18;9.70;1.00
31975;DHT22;18500;43.618;1.474;2023-11-22T17:42:44;9.70;1.00
31975;DHT22;18500;43.618;1.474;2023-11-22T17:45:10;9.70;1.00
31975;DHT22;18500;43.618;1.474;2023-11-22T17:47:36;9.60;1.00
31975;DHT22;18500;43.618;1.474;2023-11-22T17:50:06;9.60;1.00
31975;DHT22;18500;43.618;1.474;2023-11-22T17:52:33;9.60;1.00
31975;DHT22;18500;43.618;1.474;2023-11-22T17:54:59;9.60;1.00
31975;DHT22;18500;43.618;1.474;2023-11-22T17:57:29;9.60;1.00
31975;DHT22;18500;43.618;1.474;2023-11-22T17:59:55;9.50;1.00
31975;DHT22;18500;43.618;1.474;2023-11-22T18:02:20;9.40;1.00
31975;DHT22;18500;43.618;1.474;2023-11-22T18:04:46;9.40;1.00
31975;DHT22;18500;43.618;1.474;2023-11-22T18:07:12;9.40;1.00
31975;DHT22;18500;43.618;1.474;2023-11-22T18:09:37;9.40;1.00
31975;DHT22;18500;43.618;1.474;2023-11-22T18:12:03;9.50;1.00
31975;DHT22;18500;43.618;1.474;2023-11-22T18:14:35;9.50;1.00
31975;DHT22;18500;43.618;1.474;2023-11-22T18:17:02;9.50;1.00
31975;DHT22;18500;43.618;1.474;2023-11-22T18:19:27;9.40;1.00
31975;DHT22;18500;43.618;1.474;2023-11-22T18:21:53;9.40;1.00
31975;DHT22;18500;43.618;1.474;2023-11-22T18:24:18;9.30;1.00
31975;DHT22;18500;43.618;1.474;2023-11-22T18:26:47;9.20;1.00
31975;DHT22;18500;43.618;1.474;2023-11-22T18:29:13;9.20;1.00
31975;DHT22;18500;43.618;1.474;2023-11-22T18:31:41;9.30;1.00
31975;DHT22;18500;43.618;1.474;2023-11-22T18:34:07;9.30;1.00
31975;DHT22;18500;43.618;1.474;2023-11-22T18:36:32;9.30;1.00
31975;DHT22;18500;43.618;1.474;2023-11-22T18:38:59;9.20;1.00
31975;DHT22;18500;43.618;1.474;2023-11-22T18:41:24;9.20;1.00
31975;DHT22;18500;43.618;1.474;2023-11-22T18:43:50;9.10;1.00
31975;DHT22;18500;43.618;1.474;2023-11-22T18:46:16;9.10;1.00
31975;DHT22;18500;43.618;1.474;2023-11-22T18:48:41;9.10;1.00
31975;DHT22;18500;43.618;1.474;2023-11-22T18:51:07;9.00;1.00
31975;DHT22;18500;43.618;1.474;2023-11-22T18:53:32;8.90;1.00
31975;DHT22;18500;43.618;1.474;2023-11-22T18:55:58;8.80;1.00
31975;DHT22;18500;43.618;1.474;2023-11-22T18:58:24;8.70;1.00
31975;DHT22;18500;43.618;1.474;2023-11-22T19:00:50;8.70;1.00
31975;DHT22;18500;43.618;1.474;2023-11-22T19:03:16;8.70;1.00
31975;DHT22;18500;43.618;1.474;2023-11-22T19:05:41;8.60;1.00
31975;DHT22;18500;43.618;1.474;2023-11-22T19:08:08;8.60;1.00
31975;DHT22;18500;43.618;1.474;2023-11-22T19:10:34;8.60;1.00
31975;DHT22;18500;43.618;1.474;2023-11-22T19:12:59;8.70;1.00
31975;DHT22;18500;43.618;1.474;2023-11-22T19:15:25;8.70;1.00
31975;DHT22;18500;43.618;1.474;2023-11-22T19:17:51;8.70;1.00
31975;DHT22;18500;43.618;1.474;2023-11-22T19:20:16;8.70;1.00
31975;DHT22;18500;43.618;1.474;2023-11-22T19:22:42;8.70;1.00
31975;DHT22;18500;43.618;1.474;2023-11-22T19:25:09;8.70;1.00
31975;DHT22;18500;43.618;1.474;2023-11-22T19:27:38;8.60;1.00
31975;DHT22;18500;43.618;1.474;2023-11-22T19:30:05;8.50;1.00
31975;DHT22;18500;43.618;1.474;2023-11-22T19:32:32;8.50;1.00
31975;DHT22;18500;43.618;1.474;2023-11-22T19:34:57;8.50;1.00
31975;DHT22;18500;43.618;1.474;2023-11-22T19:37:24;8.50;1.00
31975;DHT22;18500;43.618;1.474;2023-11-22T19:39:54;8.60;1.00
31975;DHT22;18500;43.618;1.474;2023-11-22T19:42:21;8.60;1.00
31975;DHT22;18500;43.618;1.474;2023-11-22T19:44:47;8.70;1.00
31975;DHT22;18500;43.618;1.474;2023-11-22T19:47:12;8.60;1.00
31975;DHT22;18500;43.618;1.474;2023-11-22T19:49:38;8.50;1.00
31975;DHT22;18500;43.618;1.474;2023-11-22T19:52:05;8.50;1.00
31975;DHT22;18500;43.618;1.474;2023-11-22T19:54:30;8.40;1.00
31975;DHT22;18500;43.618;1.474;2023-11-22T19:56:56;8.40;1.00
31975;DHT22;18500;43.618;1.474;2023-11-22T19:59:22;8.40;1.00
31975;DHT22;18500;43.618;1.474;2023-11-22T20:01:47;8.40;1.00
31975;DHT22;18500;43.618;1.474;2023-11-22T20:04:13;8.40;1.00
31975;DHT22;18500;43.618;1.474;2023-11-22T20:06:40;8.30;1.00
31975;DHT22;18500;43.618;1.474;2023-11-22T20:09:06;8.30;1.00
31975;DHT22;18500;43.618;1.474;2023-11-22T20:11:31;8.40;1.00
31975;DHT22;18500;43.618;1.474;2023-11-22T20:13:57;8.40;1.00
31975;DHT22;18500;43.618;1.474;2023-11-22T20:16:22;8.30;1.00
31975;DHT22;18500;43.618;1.474;2023-11-22T20:18:48;8.30;1.00
31975;DHT22;18500;43.618;1.474;2023-11-22T20:21:15;8.30;1.00
31975;DHT22;18500;43.618;1.474;2023-11-22T20:23:41;8.30;1.00
31975;DHT22;18500;43.618;1.474;2023-11-22T20:26:07;8.20;1.00
31975;DHT22;18500;43.618;1.474;2023-11-22T20:28:33;8.20;1.00
31975;DHT22;18500;43.618;1.474;2023-11-22T20:30:59;8.20;1.00
31975;DHT22;18500;43.618;1.474;2023-11-22T20:33:25;8.00;1.00
31975;DHT22;18500;43.618;1.474;2023-11-22T20:35:52;8.00;1.00
31975;DHT22;18500;43.618;1.474;2023-11-22T20:38:18;7.90;1.00
31975;DHT22;18500;43.618;1.474;2023-11-22T20:40:44;7.80;1.00
31975;DHT22;18500;43.618;1.474;2023-11-22T20:43:10;7.60;1.00
31975;DHT22;18500;43.618;1.474;2023-11-22T20:45:36;7.70;1.00
31975;DHT22;18500;43.618;1.474;2023-11-22T20:48:01;7.80;1.00
31975;DHT22;18500;43.618;1.474;2023-11-22T20:50:27;7.80;1.00
31975;DHT22;18500;43.618;1.474;2023-11-22T20:52:52;7.90;1.00
31975;DHT22;18500;43.618;1.474;2023-11-22T20:55:19;7.90;1.00
31975;DHT22;18500;43.618;1.474;2023-11-22T20:57:45;7.90;1.00
31975;DHT22;18500;43.618;1.474;2023-11-22T21:00:10;7.90;1.00
31975;DHT22;18500;43.618;1.474;2023-11-22T21:02:39;7.80;1.00
31975;DHT22;18500;43.618;1.474;2023-11-22T21:05:05;7.90;1.00
31975;DHT22;18500;43.618;1.474;2023-11-22T21:07:32;7.80;1.00
31975;DHT22;18500;43.618;1.474;2023-11-22T21:09:59;7.80;1.00
31975;DHT22;18500;43.618;1.474;2023-11-22T21:12:25;7.80;1.00
31975;DHT22;18500;43.618;1.474;2023-11-22T21:14:50;7.80;1.00
31975;DHT22;18500;43.618;1.474;2023-11-22T21:17:16;7.80;1.00
31975;DHT22;18500;43.618;1.474;2023-11-22T21:19:44;7.80;1.00
31975;DHT22;18500;43.618;1.474;2023-11-22T21:22:14;7.70;1.00
31975;DHT22;18500;43.618;1.474;2023-11-22T21:24:40;7.70;1.00
31975;DHT22;18500;43.618;1.474;2023-11-22T21:27:06;7.70;1.00
31975;DHT22;18500;43.618;1.474;2023-11-22T21:29:31;7.70;1.00
31975;DHT22;18500;43.618;1.474;2023-11-22T21:31:57;7.70;1.00
31975;DHT22;18500;43.618;1.474;2023-11-22T21:34:24;7.60;1.00
31975;DHT22;18500;43.618;1.474;2023-11-22T21:36:49;7.50;1.00
31975;DHT22;18500;43.618;1.474;2023-11-22T21:39:15;7.50;1.00
31975;DHT22;18500;43.618;1.474;2023-11-22T21:41:46;7.40;1.00
31975;DHT22;18500;43.618;1.474;2023-11-22T21:44:12;7.30;1.00
31975;DHT22;18500;43.618;1.474;2023-11-22T21:46:38;7.30;1.00
31975;DHT22;18500;43.618;1.474;2023-11-22T21:49:03;7.30;1.00
31975;DHT22;18500;43.618;1.474;2023-11-22T21:51:30;7.30;1.00
31975;DHT22;18500;43.618;1.474;2023-11-22T21:53:56;7.20;1.00
31975;DHT22;18500;43.618;1.474;2023-11-22T21:56:22;7.20;1.00
31975;DHT22;18500;43.618;1.474;2023-11-22T21:58:48;7.20;1.00
31975;DHT22;18500;43.618;1.474;2023-11-22T22:01:13;7.10;1.00
31975;DHT22;18500;43.618;1.474;2023-11-22T22:03:40;7.20;1.00
31975;DHT22;18500;43.618;1.474;2023-11-22T22:06:06;7.20;1.00
31975;DHT22;18500;43.618;1.474;2023-11-22T22:08:34;7.30;1.00
31975;DHT22;18500;43.618;1.474;2023-11-22T22:11:06;7.20;1.00
31975;DHT22;18500;43.618;1.474;2023-11-22T22:13:32;7.20;1.00
